createdAt,value
2023-02-23T00:02:46.453Z,102.65
2023-02-23T00:07:52.185Z,111.70
2023-02-23T00:12:55.237Z,105.65
2023-02-23T00:17:58.835Z,113.22
2023-02-23T00:23:04.269Z,121.28
2023-02-23T00:28:07.423Z,113.70
2023-02-23T00:33:10.638Z,101.72
2023-02-23T00:38:18.953Z,102.80
2023-02-23T00:43:24.946Z,106.95
2023-02-23T00:48:28.793Z,106.20
2023-02-23T00:53:33.546Z,105.18
2023-02-23T00:58:36.809Z,101.55
2023-02-23T01:03:41.386Z,108.10
2023-02-23T01:08:49.107Z,97.82
2023-02-23T01:13:53.679Z,111.68
2023-02-23T01:18:59.590Z,98.35
2023-02-23T01:24:04.732Z,110.03
2023-02-23T01:29:09.551Z,107.95
2023-02-23T01:34:13.998Z,104.18
2023-02-23T01:39:19.139Z,103.75
2023-02-23T01:44:41.365Z,110.80
2023-02-23T01:49:44.528Z,115.93
2023-02-23T01:54:51.382Z,105.38
2023-02-23T01:59:54.959Z,111.93
2023-02-23T02:04:59.691Z,100.43
2023-02-23T02:10:24.651Z,98.85
2023-02-23T02:15:32.827Z,95.40
2023-02-23T02:20:46.507Z,100.10
2023-02-23T02:25:55.150Z,107.60
2023-02-23T02:31:13.281Z,98.43
2023-02-23T02:36:31.360Z,103.93
2023-02-23T02:41:42.311Z,101.35
2023-02-23T02:46:48.649Z,97.63
2023-02-23T02:51:56.477Z,97.68
2023-02-23T02:57:04.452Z,102.82
2023-02-23T03:02:26.208Z,92.80
2023-02-23T03:07:50.027Z,93.95
2023-02-23T03:13:16.373Z,90.47
2023-02-23T03:18:43.730Z,82.25
2023-02-23T03:24:09.724Z,97.50
2023-02-23T03:29:36.110Z,89.78
2023-02-23T03:35:00.926Z,93.30
2023-02-23T03:40:24.637Z,94.28
2023-02-23T03:45:47.035Z,89.43
2023-02-23T03:51:09.881Z,94.03
2023-02-23T03:56:32.111Z,84.63
2023-02-23T04:01:55.016Z,85.28
2023-02-23T04:07:18.324Z,95.15
2023-02-23T04:12:40.002Z,88.38
2023-02-23T04:17:44.662Z,87.05
2023-02-23T04:22:47.876Z,94.70
2023-02-23T04:27:51.060Z,89.70
2023-02-23T04:32:55.830Z,84.47
2023-02-23T04:37:59.343Z,89.88
2023-02-23T04:43:02.537Z,102.78
2023-02-23T04:48:07.463Z,94.40
2023-02-23T04:53:10.570Z,98.60
2023-02-23T04:58:14.162Z,92.30
2023-02-23T05:03:18.657Z,98.43
2023-02-23T05:08:21.777Z,99.68
2023-02-23T05:13:24.910Z,105.80
2023-02-23T05:18:29.507Z,101.97
2023-02-23T05:23:32.623Z,92.50
2023-02-23T05:28:36.188Z,93.47
2023-02-23T05:33:42.660Z,94.50
2023-02-23T05:38:46.798Z,88.78
2023-02-23T05:43:51.154Z,84.05
2023-02-23T05:48:58.691Z,93.53
2023-02-23T05:54:01.971Z,89.03
2023-02-23T05:59:05.435Z,86.22
2023-02-23T06:04:09.934Z,87.93
2023-02-23T06:09:13.079Z,86.20
2023-02-23T06:14:16.425Z,89.10
2023-02-23T06:19:21.560Z,88.80
2023-02-23T06:24:24.690Z,87.50
2023-02-23T06:29:27.889Z,82.82
2023-02-23T06:34:33.926Z,93.95
2023-02-23T06:39:38.336Z,84.25
2023-02-23T06:44:41.410Z,92.85
2023-02-23T06:49:46.213Z,87.15
2023-02-23T06:54:50.142Z,77.70
2023-02-23T06:59:53.382Z,88.47
2023-02-23T07:04:58.760Z,92.35
2023-02-23T07:10:01.967Z,90.00
2023-02-23T07:15:05.372Z,89.25
2023-02-23T07:20:10.876Z,95.03
2023-02-23T07:25:14.011Z,88.75
2023-02-23T07:30:18.510Z,96.75
2023-02-23T07:35:23.410Z,85.00
2023-02-23T07:40:27.144Z,95.03
2023-02-23T07:45:30.515Z,90.68
2023-02-23T07:50:35.736Z,93.22
2023-02-23T07:55:40.307Z,94.13
2023-02-23T08:00:43.917Z,89.35
2023-02-23T08:05:48.789Z,88.13
2023-02-23T08:10:52.205Z,88.22
2023-02-23T08:15:55.338Z,90.68
2023-02-23T08:21:00.914Z,83.10
2023-02-23T08:26:04.258Z,81.75
2023-02-23T08:31:10.209Z,91.35
2023-02-23T08:36:15.134Z,84.25
2023-02-23T08:41:18.892Z,86.32
2023-02-23T08:46:22.464Z,107.18
2023-02-23T08:51:27.346Z,92.60
2023-02-23T08:56:31.887Z,95.95
2023-02-23T09:01:35.584Z,88.47
2023-02-23T09:06:41.216Z,96.00
2023-02-23T09:11:45.715Z,90.78
2023-02-23T09:16:49.067Z,84.55
2023-02-23T09:21:53.733Z,87.68
2023-02-23T09:26:57.064Z,93.63
2023-02-23T09:32:00.601Z,99.07
2023-02-23T09:37:05.604Z,87.20
2023-02-23T09:42:14.134Z,88.20
2023-02-23T09:47:25.704Z,93.60
2023-02-23T09:52:35.151Z,89.78
2023-02-23T09:57:39.987Z,84.88
2023-02-23T10:02:51.447Z,86.50
2023-02-23T10:07:57.286Z,83.65
2023-02-23T10:13:03.506Z,88.28
2023-02-23T10:18:13.281Z,85.70
2023-02-23T10:23:18.951Z,82.38
2023-02-23T10:28:23.108Z,93.38
2023-02-23T10:33:32.104Z,88.05
2023-02-23T10:38:36.748Z,92.72
2023-02-23T10:43:40.640Z,88.95
2023-02-23T10:48:44.507Z,87.40
2023-02-23T10:53:49.492Z,90.38
2023-02-23T10:58:53.846Z,91.50
2023-02-23T11:04:05.629Z,81.22
2023-02-23T11:09:33.068Z,78.32
2023-02-23T11:14:45.639Z,81.18
2023-02-23T11:19:48.989Z,76.25
2023-02-23T11:24:55.853Z,77.00
2023-02-23T11:30:00.248Z,79.75
2023-02-23T11:35:15.619Z,75.78
2023-02-23T11:40:21.829Z,80.35
2023-02-23T11:45:26.658Z,79.32
2023-02-23T11:50:33.210Z,73.72
2023-02-23T11:55:40.755Z,61.97
2023-02-23T12:00:44.051Z,63.25
2023-02-23T12:05:52.014Z,61.88
2023-02-23T12:10:59.429Z,54.00
2023-02-23T12:16:04.107Z,61.80
2023-02-23T12:21:14.915Z,57.72
2023-02-23T12:26:22.888Z,59.03
2023-02-23T12:31:29.307Z,57.75
2023-02-23T12:36:38.522Z,54.78
2023-02-23T12:41:46.712Z,48.30
2023-02-23T12:46:51.835Z,49.25
2023-02-23T12:51:58.630Z,52.53
2023-02-23T12:57:07.639Z,49.13
2023-02-23T13:02:16.605Z,45.40
2023-02-23T13:07:22.248Z,43.45
2023-02-23T13:12:30.924Z,33.38
2023-02-23T13:17:38.248Z,28.48
2023-02-23T13:22:46.476Z,28.50
2023-02-23T13:27:53.785Z,31.10
2023-02-23T13:32:58.363Z,28.52
2023-02-23T13:38:07.939Z,27.63
2023-02-23T13:43:17.903Z,23.98
2023-02-23T13:48:27.180Z,31.50
2023-02-23T13:53:35.115Z,23.85
2023-02-23T13:58:47.203Z,23.35
2023-02-23T14:03:55.264Z,21.98
2023-02-23T14:09:01.044Z,25.42
2023-02-23T14:14:06.016Z,22.92
2023-02-23T14:19:15.647Z,25.35
2023-02-23T14:24:20.625Z,99.95
2023-02-23T14:29:29.690Z,19.42
2023-02-23T14:34:47.694Z,25.35
2023-02-23T14:39:51.652Z,26.45
2023-02-23T14:44:57.256Z,29.42
2023-02-23T14:50:01.729Z,24.25
2023-02-23T14:55:15.671Z,26.10
2023-02-23T15:00:23.201Z,30.05
2023-02-23T15:05:27.815Z,25.10
2023-02-23T15:10:33.376Z,30.88
2023-02-23T15:15:45.657Z,28.55
2023-02-23T15:20:49.243Z,25.30
2023-02-23T15:25:53.043Z,27.45
2023-02-23T15:30:58.357Z,35.78
2023-02-23T15:36:05.518Z,29.73
2023-02-23T15:41:09.700Z,31.48
2023-02-23T15:46:23.235Z,27.55
2023-02-23T15:51:31.252Z,27.23
2023-02-23T15:56:35.481Z,31.42
2023-02-23T16:01:43.526Z,28.92
2023-02-23T16:06:51.249Z,26.90
2023-02-23T16:11:55.640Z,27.77
2023-02-23T16:17:13.076Z,26.75
2023-02-23T16:22:24.953Z,29.92
2023-02-23T16:27:29.436Z,32.58
2023-02-23T16:32:38.973Z,30.02
2023-02-23T16:37:54.904Z,29.77
2023-02-23T16:42:59.821Z,34.13
2023-02-23T16:48:04.688Z,38.10
2023-02-23T16:53:09.914Z,36.97
2023-02-23T16:58:17.097Z,40.85
2023-02-23T17:03:24.433Z,41.78
2023-02-23T17:08:27.855Z,47.60
2023-02-23T17:13:33.411Z,44.15
2023-02-23T17:18:42.617Z,59.30
2023-02-23T17:23:51.052Z,53.58
2023-02-23T17:28:54.975Z,32.75
2023-02-23T17:33:59.680Z,27.77
2023-02-23T17:39:03.440Z,25.63
2023-02-23T17:44:06.664Z,24.38
2023-02-23T17:49:11.569Z,29.67
2023-02-23T17:54:15.712Z,19.60
2023-02-23T17:59:19.922Z,22.40
2023-02-23T18:04:24.742Z,26.65
2023-02-23T18:09:28.381Z,21.48
2023-02-23T18:14:31.818Z,28.83
2023-02-23T18:19:36.608Z,21.83
2023-02-23T18:24:41.623Z,20.63
2023-02-23T18:29:44.887Z,16.50
2023-02-23T18:34:50.409Z,19.70
2023-02-23T18:39:57.252Z,23.73
2023-02-23T18:45:00.599Z,26.80
2023-02-23T18:50:05.499Z,35.00
2023-02-23T18:55:09.249Z,22.17
2023-02-23T19:00:13.853Z,17.60
2023-02-23T19:05:21.023Z,19.83
2023-02-23T19:10:25.234Z,23.92
2023-02-23T19:15:28.509Z,22.95
2023-02-23T19:20:35.942Z,25.15
2023-02-23T19:25:39.429Z,19.17
2023-02-23T19:30:45.226Z,25.65
2023-02-23T19:35:50.433Z,20.95
2023-02-23T19:40:53.765Z,22.58
2023-02-23T19:45:57.355Z,23.63
2023-02-23T19:51:02.043Z,32.05
2023-02-23T19:56:06.342Z,27.40
2023-02-23T20:01:10.519Z,33.50
2023-02-23T20:06:15.933Z,27.27
2023-02-23T20:11:19.674Z,21.80
2023-02-23T20:16:23.100Z,18.95
2023-02-23T20:21:29.860Z,23.02
2023-02-23T20:26:35.630Z,15.38
2023-02-23T20:31:42.051Z,28.15
2023-02-23T20:36:47.328Z,19.67
2023-02-23T20:41:53.608Z,19.77
2023-02-23T20:46:57.338Z,27.25
2023-02-23T20:52:03.249Z,22.05
2023-02-23T20:57:09.188Z,24.33
2023-02-23T21:02:14.015Z,14.55
2023-02-23T21:07:22.511Z,12.77
2023-02-23T21:12:26.120Z,19.85
2023-02-23T21:17:29.643Z,17.73
2023-02-23T21:22:34.184Z,16.92
2023-02-23T21:27:37.549Z,26.50
2023-02-23T21:32:42.350Z,18.30
2023-02-23T21:37:47.547Z,19.08
2023-02-23T21:42:51.223Z,11.48
2023-02-23T21:47:54.668Z,20.30
2023-02-23T21:52:59.529Z,25.55
2023-02-23T21:58:03.243Z,25.95
2023-02-23T22:03:06.744Z,22.52
2023-02-23T22:08:15.948Z,33.95
2023-02-23T22:13:19.428Z,30.70
2023-02-23T22:18:24.961Z,20.52
2023-02-23T22:23:31.674Z,28.50
2023-02-23T22:28:35.602Z,28.65
2023-02-23T22:33:39.857Z,24.45
2023-02-23T22:38:44.816Z,16.17
2023-02-23T22:43:48.203Z,15.80
2023-02-23T22:48:51.328Z,19.73
2023-02-23T22:53:55.826Z,13.32
2023-02-23T22:59:04.645Z,17.45
2023-02-23T23:04:10.530Z,23.05
2023-02-23T23:09:16.513Z,10.68
2023-02-23T23:14:20.376Z,14.93
2023-02-23T23:19:24.747Z,16.17
2023-02-23T23:24:29.439Z,18.85
2023-02-23T23:29:33.094Z,20.50
2023-02-23T23:34:36.194Z,15.65
2023-02-23T23:39:40.716Z,18.02
2023-02-23T23:44:45.261Z,14.63
2023-02-23T23:49:48.364Z,21.63
2023-02-23T23:54:52.862Z,14.13
2023-02-23T23:59:56.392Z,14.73
